Time;durP1;ratioP1;P1;durP2;ratioP2;P2;SDS_P1;SDS_P2;PMS_P1;PMS_P2;Temp;Humidity;BMP_temperature;BMP_pressure;BME280_temperature;BME280_humidity;BME280_pressure;Samples;Min_cycle;Max_cycle;Signal;HPM_P1;HPM_P2
2022/09/12 00:01:40;;;;;;;12.57;11.50;;;;;;;;;;4984995;28;20658;-59
2022/09/12 00:04:07;;;;;;;12.63;11.63;;;;;;;;;;4971775;28;20177;-57
2022/09/12 00:06:34;;;;;;;11.83;10.83;;;;;;;;;;4982564;28;20747;-56
2022/09/12 00:09:03;;;;;;;13.03;11.80;;;;;;;;;;4963204;28;20177;-56
2022/09/12 00:11:30;;;;;;;12.53;11.53;;;;;;;;;;4976647;28;20719;-56
2022/09/12 00:13:57;;;;;;;13.17;11.97;;;;;;;;;;4961678;28;20178;-56
2022/09/12 00:16:24;;;;;;;14.40;12.90;;;;;;;;;;4954322;28;20188;-57
2022/09/12 00:18:51;;;;;;;14.67;13.37;;;;;;;;;;4968903;28;20188;-58
2022/09/12 00:21:18;;;;;;;13.77;12.50;;;;;;;;;;4947603;28;20254;-58
2022/09/12 00:23:44;;;;;;;13.63;11.97;;;;;;;;;;4955087;28;20573;-57
2022/09/12 00:26:10;;;;;;;12.53;11.43;;;;;;;;;;4948347;28;20378;-57
2022/09/12 00:28:37;;;;;;;13.73;12.53;;;;;;;;;;4949426;28;20222;-58
2022/09/12 00:31:07;;;;;;;13.37;12.17;;;;;;;;;;4961535;28;20214;-58
2022/09/12 00:33:34;;;;;;;14.00;12.73;;;;;;;;;;4964930;28;20741;-58
2022/09/12 00:36:03;;;;;;;14.07;12.67;;;;;;;;;;4962263;28;20191;-57
2022/09/12 00:38:29;;;;;;;14.77;13.47;;;;;;;;;;4959324;28;20199;-58
2022/09/12 00:40:56;;;;;;;13.63;12.33;;;;;;;;;;4962933;28;20199;-58
2022/09/12 00:43:39;;;;;;;14.10;12.80;;;;;;;;;;4967658;28;20192;-58
2022/09/12 00:46:25;;;;;;;14.17;12.87;;;;;;;;;;4971474;28;20187;-57
2022/09/12 00:48:55;;;;;;;13.50;12.30;;;;;;;;;;4959360;28;20196;-58
2022/09/12 00:51:21;;;;;;;13.13;12.03;;;;;;;;;;4961156;28;20241;-57
2022/09/12 00:53:48;;;;;;;15.17;13.70;;;;;;;;;;4949119;28;20230;-57
2022/09/12 00:56:15;;;;;;;14.13;12.83;;;;;;;;;;4970674;28;20188;-58
2022/09/12 00:58:50;;;;;;;14.23;12.93;;;;;;;;;;4957871;28;20588;-57
2022/09/12 01:01:16;;;;;;;14.30;13.00;;;;;;;;;;4969341;28;20802;-57
2022/09/12 01:03:42;;;;;;;14.63;13.13;;;;;;;;;;4965429;28;20210;-57
2022/09/12 01:06:11;;;;;;;14.30;13.00;;;;;;;;;;4998219;28;20195;-58
2022/09/12 01:08:39;;;;;;;14.07;12.73;;;;;;;;;;4973515;28;20588;-57
2022/09/12 01:11:06;;;;;;;13.93;12.60;;;;;;;;;;5000640;28;20197;-57
2022/09/12 01:13:34;;;;;;;14.07;12.67;;;;;;;;;;5008117;28;20206;-57
2022/09/12 01:16:00;;;;;;;14.70;13.30;;;;;;;;;;4977333;28;20243;-58
2022/09/12 01:18:26;;;;;;;13.93;12.53;;;;;;;;;;4987946;28;20585;-58
2022/09/12 01:21:01;;;;;;;13.73;12.43;;;;;;;;;;4991264;28;20569;-58
2022/09/12 01:23:29;;;;;;;14.37;13.07;;;;;;;;;;5002710;28;20179;-58
2022/09/12 01:26:14;;;;;;;14.50;13.10;;;;;;;;;;5001091;28;20656;-59
2022/09/12 01:28:46;;;;;;;14.47;13.17;;;;;;;;;;5002924;28;20182;-58
2022/09/12 01:31:21;;;;;;;14.03;12.73;;;;;;;;;;4980795;28;20662;-58
2022/09/12 01:33:47;;;;;;;15.73;13.13;;;;;;;;;;4992763;28;20194;-58
2022/09/12 01:36:14;;;;;;;14.80;13.33;;;;;;;;;;4987874;28;20590;-57
2022/09/12 01:38:40;;;;;;;14.30;13.00;;;;;;;;;;4983278;28;20241;-58
2022/09/12 01:41:10;;;;;;;14.03;12.63;;;;;;;;;;4989426;28;20373;-58
2022/09/12 01:43:36;;;;;;;15.70;14.20;;;;;;;;;;4976711;28;20206;-59
2022/09/12 01:46:23;;;;;;;14.77;13.37;;;;;;;;;;4979894;28;20183;-58
2022/09/12 01:48:59;;;;;;;14.43;13.03;;;;;;;;;;4994020;28;20649;-58
2022/09/12 01:51:28;;;;;;;14.00;12.70;;;;;;;;;;4995330;28;20230;-58
2022/09/12 01:54:02;;;;;;;15.43;13.87;;;;;;;;;;4985350;28;20619;-59
2022/09/12 01:56:30;;;;;;;14.37;13.10;;;;;;;;;;4983230;28;20198;-58
2022/09/12 01:59:17;;;;;;;15.10;13.57;;;;;;;;;;4990153;28;20204;-58
2022/09/12 02:01:46;;;;;;;14.80;13.43;;;;;;;;;;4986283;28;20194;-58
2022/09/12 02:04:17;;;;;;;14.53;13.10;;;;;;;;;;4995607;28;20183;-59
2022/09/12 02:07:02;;;;;;;14.87;13.47;;;;;;;;;;5007007;28;20202;-59
2022/09/12 02:09:34;;;;;;;14.87;12.90;;;;;;;;;;4988796;28;20185;-59
2022/09/12 02:12:01;;;;;;;14.57;13.27;;;;;;;;;;4994274;28;20221;-59
2022/09/12 02:14:32;;;;;;;14.80;12.60;;;;;;;;;;4959136;28;20655;-58
2022/09/12 02:17:06;;;;;;;15.10;13.50;;;;;;;;;;4991294;28;20199;-58
2022/09/12 02:19:39;;;;;;;14.43;12.97;;;;;;;;;;4992721;28;20207;-58
2022/09/12 02:22:05;;;;;;;15.73;12.57;;;;;;;;;;4983985;28;20669;-59
2022/09/12 02:24:33;;;;;;;14.67;13.17;;;;;;;;;;4998970;28;20576;-59
2022/09/12 02:27:09;;;;;;;14.47;12.60;;;;;;;;;;5007541;28;20228;-59
2022/09/12 02:29:39;;;;;;;13.77;12.47;;;;;;;;;;4973910;28;20204;-60
2022/09/12 02:32:11;;;;;;;14.33;12.83;;;;;;;;;;4962854;28;20217;-58
2022/09/12 02:34:50;;;;;;;14.60;13.10;;;;;;;;;;4978906;28;20191;-59
2022/09/12 02:37:26;;;;;;;13.87;12.50;;;;;;;;;;4975582;28;20658;-58
2022/09/12 02:39:54;;;;;;;13.37;11.97;;;;;;;;;;4996687;28;20275;-57
2022/09/12 02:42:21;;;;;;;14.17;12.77;;;;;;;;;;5007386;28;20187;-58
2022/09/12 02:44:48;;;;;;;15.00;13.53;;;;;;;;;;4994116;28;20179;-60
2022/09/12 02:47:17;;;;;;;15.30;13.67;;;;;;;;;;4976260;28;20601;-59
2022/09/12 02:49:44;;;;;;;13.33;12.03;;;;;;;;;;4989091;28;20187;-58
2022/09/12 02:52:10;;;;;;;14.70;13.30;;;;;;;;;;4978875;28;20266;-59
2022/09/12 02:54:37;;;;;;;15.67;14.17;;;;;;;;;;4976072;28;20275;-59
2022/09/12 02:57:03;;;;;;;13.90;12.60;;;;;;;;;;4970065;28;20667;-58
2022/09/12 02:59:29;;;;;;;15.03;13.43;;;;;;;;;;4983853;28;20310;-58
2022/09/12 03:01:58;;;;;;;13.77;12.40;;;;;;;;;;4964248;28;20662;-59
2022/09/12 03:04:43;;;;;;;14.20;12.90;;;;;;;;;;4945482;28;20600;-58
2022/09/12 03:07:12;;;;;;;12.90;11.70;;;;;;;;;;4934488;28;20195;-59
2022/09/12 03:09:47;;;;;;;14.23;12.73;;;;;;;;;;4964886;28;20697;-58
2022/09/12 03:12:20;;;;;;;14.07;12.63;;;;;;;;;;4976474;28;20507;-58
2022/09/12 03:15:01;;;;;;;13.83;12.47;;;;;;;;;;4962824;28;20267;-59
2022/09/12 03:17:46;;;;;;;13.40;12.10;;;;;;;;;;4968765;28;20192;-58
2022/09/12 03:20:21;;;;;;;14.33;12.93;;;;;;;;;;4967833;28;20644;-59
2022/09/12 03:22:55;;;;;;;13.40;12.07;;;;;;;;;;4954637;28;20179;-59
2022/09/12 03:25:29;;;;;;;13.83;12.43;;;;;;;;;;4951610;28;20349;-59
2022/09/12 03:27:58;;;;;;;13.23;11.83;;;;;;;;;;4951492;28;20622;-59
2022/09/12 03:30:25;;;;;;;13.70;12.40;;;;;;;;;;4968877;28;20320;-57
2022/09/12 03:32:53;;;;;;;13.87;11.93;;;;;;;;;;4947505;29;20188;-58
2022/09/12 03:35:20;;;;;;;13.03;11.93;;;;;;;;;;4975290;28;20681;-57
2022/09/12 03:37:47;;;;;;;12.83;11.63;;;;;;;;;;4962983;28;20191;-58
2022/09/12 03:40:14;;;;;;;20.43;18.87;;;;;;;;;;4971138;28;20477;-57
2022/09/12 03:42:41;;;;;;;13.30;11.90;;;;;;;;;;4960043;28;20179;-57
2022/09/12 03:45:08;;;;;;;12.60;11.50;;;;;;;;;;4955728;28;20584;-58
2022/09/12 03:47:34;;;;;;;13.40;12.10;;;;;;;;;;4966710;28;20179;-58
2022/09/12 03:50:01;;;;;;;13.33;12.03;;;;;;;;;;4961318;28;20278;-58
2022/09/12 03:52:27;;;;;;;12.23;11.13;;;;;;;;;;4970063;28;20420;-58
2022/09/12 03:54:53;;;;;;;11.53;10.50;;;;;;;;;;4966134;28;20171;-57
2022/09/12 03:57:19;;;;;;;11.50;10.40;;;;;;;;;;4950546;28;20664;-58
2022/09/12 03:59:45;;;;;;;12.53;11.33;;;;;;;;;;4970012;28;20769;-58
2022/09/12 04:02:12;;;;;;;18.03;16.67;;;;;;;;;;4994368;28;20182;-58
2022/09/12 04:04:43;;;;;;;11.27;10.20;;;;;;;;;;4979592;28;20179;-58
2022/09/12 04:07:10;;;;;;;16.80;15.50;;;;;;;;;;4989469;28;20575;-58
2022/09/12 04:09:36;;;;;;;14.15;12.95;;;;;;;;;;4978396;28;20931;-58
2022/09/12 04:12:03;;;;;;;11.43;10.50;;;;;;;;;;4982521;28;20188;-58
2022/09/12 04:14:29;;;;;;;12.20;11.10;;;;;;;;;;4965140;28;20273;-58
2022/09/12 04:16:55;;;;;;;11.60;10.50;;;;;;;;;;5007352;28;20804;-58
2022/09/12 04:19:22;;;;;;;12.10;10.97;;;;;;;;;;4972612;28;20194;-58
2022/09/12 04:21:48;;;;;;;11.83;10.83;;;;;;;;;;5002151;28;20275;-58
2022/09/12 04:24:14;;;;;;;12.60;11.43;;;;;;;;;;4996785;28;20186;-58
2022/09/12 04:26:40;;;;;;;11.73;10.63;;;;;;;;;;5003879;28;20244;-58
2022/09/12 04:29:07;;;;;;;15.97;14.53;;;;;;;;;;4958549;28;20568;-58
2022/09/12 04:31:33;;;;;;;11.80;10.60;;;;;;;;;;4993899;28;20614;-58
2022/09/12 04:34:00;;;;;;;11.57;10.57;;;;;;;;;;5001076;28;20877;-58
2022/09/12 04:36:28;;;;;;;11.43;10.40;;;;;;;;;;4994171;28;20211;-58
2022/09/12 04:38:57;;;;;;;11.80;10.80;;;;;;;;;;4975970;28;20190;-58
2022/09/12 04:41:26;;;;;;;14.50;12.10;;;;;;;;;;4988880;28;20210;-57
2022/09/12 04:43:53;;;;;;;10.63;9.73;;;;;;;;;;4986900;28;20190;-57
2022/09/12 04:46:19;;;;;;;17.13;15.83;;;;;;;;;;4987098;28;20195;-58
2022/09/12 04:48:46;;;;;;;12.77;11.57;;;;;;;;;;4992569;28;20222;-58
2022/09/12 04:51:16;;;;;;;12.87;11.67;;;;;;;;;;4971198;28;20240;-59
2022/09/12 04:53:47;;;;;;;11.10;10.07;;;;;;;;;;4967080;28;20191;-58
2022/09/12 04:56:20;;;;;;;12.73;11.53;;;;;;;;;;4977280;28;20711;-58
2022/09/12 04:58:47;;;;;;;12.40;11.20;;;;;;;;;;4995515;28;20434;-58
2022/09/12 05:01:23;;;;;;;12.37;11.07;;;;;;;;;;4951331;28;20740;-58
2022/09/12 05:03:50;;;;;;;10.43;9.53;;;;;;;;;;4948258;28;20187;-57
2022/09/12 05:06:24;;;;;;;12.47;11.27;;;;;;;;;;4976915;28;20190;-58
2022/09/12 05:08:50;;;;;;;12.53;10.27;;;;;;;;;;4952290;28;20713;-57
2022/09/12 05:11:19;;;;;;;10.97;9.87;;;;;;;;;;4964102;28;20272;-57
2022/09/12 05:13:45;;;;;;;11.93;10.70;;;;;;;;;;4958586;28;20279;-57
2022/09/12 05:16:14;;;;;;;10.97;9.90;;;;;;;;;;4970353;28;20179;-57
2022/09/12 05:18:40;;;;;;;12.03;11.00;;;;;;;;;;4952353;28;20190;-58
2022/09/12 05:21:08;;;;;;;12.37;11.17;;;;;;;;;;4948725;28;20207;-58
2022/09/12 05:23:35;;;;;;;11.90;10.80;;;;;;;;;;4949122;28;20194;-58
2022/09/12 05:26:02;;;;;;;10.27;9.27;;;;;;;;;;4961659;28;20193;-57
2022/09/12 05:28:29;;;;;;;13.63;11.67;;;;;;;;;;4955810;28;20658;-57
2022/09/12 05:31:12;;;;;;;14.30;11.97;;;;;;;;;;4971390;28;20180;-57
2022/09/12 05:33:39;;;;;;;16.00;12.13;;;;;;;;;;4946535;28;20689;-58
2022/09/12 05:36:06;;;;;;;15.23;12.80;;;;;;;;;;4959179;28;20183;-58
2022/09/12 05:38:36;;;;;;;14.97;12.83;;;;;;;;;;4962448;28;20224;-57
2022/09/12 05:41:06;;;;;;;13.43;12.03;;;;;;;;;;4954578;28;20215;-56
2022/09/12 05:43:34;;;;;;;13.53;12.13;;;;;;;;;;4960315;28;20180;-57
2022/09/12 05:46:01;;;;;;;13.97;12.47;;;;;;;;;;4941977;28;20188;-57
2022/09/12 05:48:27;;;;;;;12.93;11.63;;;;;;;;;;4959093;28;20173;-58
2022/09/12 05:51:08;;;;;;;14.40;12.93;;;;;;;;;;4946972;29;20555;-57
2022/09/12 05:53:34;;;;;;;13.73;12.33;;;;;;;;;;4936042;28;20298;-57
2022/09/12 05:56:04;;;;;;;14.97;11.87;;;;;;;;;;4951737;28;20193;-57
2022/09/12 05:58:30;;;;;;;13.53;12.23;;;;;;;;;;4965117;28;20254;-58
2022/09/12 06:01:01;;;;;;;13.53;12.13;;;;;;;;;;4983386;28;20325;-57
2022/09/12 06:03:27;;;;;;;13.43;11.50;;;;;;;;;;4988486;28;20638;-57
2022/09/12 06:05:53;;;;;;;12.57;11.37;;;;;;;;;;4988583;28;20222;-58
2022/09/12 06:08:19;;;;;;;14.80;11.77;;;;;;;;;;4988932;28;20175;-57
2022/09/12 06:10:45;;;;;;;16.03;12.83;;;;;;;;;;4985144;28;20533;-57
2022/09/12 06:13:11;;;;;;;13.87;12.43;;;;;;;;;;4970494;28;20265;-57
2022/09/12 06:15:37;;;;;;;14.00;11.73;;;;;;;;;;4970581;28;20195;-57
2022/09/12 06:18:04;;;;;;;14.03;11.33;;;;;;;;;;4972110;28;20697;-57
2022/09/12 06:20:30;;;;;;;14.23;12.70;;;;;;;;;;4969452;28;20852;-58
2022/09/12 06:22:56;;;;;;;12.97;11.67;;;;;;;;;;4984242;28;20581;-57
2022/09/12 06:25:22;;;;;;;12.90;11.60;;;;;;;;;;4971468;28;20190;-57
2022/09/12 06:27:50;;;;;;;14.67;12.03;;;;;;;;;;4999185;28;20174;-58
2022/09/12 06:30:16;;;;;;;13.73;12.00;;;;;;;;;;4995901;28;20709;-57
2022/09/12 06:32:42;;;;;;;12.97;11.73;;;;;;;;;;5002089;28;20183;-57
2022/09/12 06:35:08;;;;;;;13.67;11.40;;;;;;;;;;4981656;28;20187;-59
2022/09/12 06:37:35;;;;;;;13.97;11.80;;;;;;;;;;5001803;28;20171;-56
2022/09/12 06:40:01;;;;;;;11.33;10.30;;;;;;;;;;4968591;28;20301;-57
2022/09/12 06:42:27;;;;;;;14.33;11.30;;;;;;;;;;4989337;28;20208;-57
2022/09/12 06:44:53;;;;;;;13.10;11.83;;;;;;;;;;4988779;28;20180;-56
2022/09/12 06:47:20;;;;;;;15.03;12.10;;;;;;;;;;4996351;28;20179;-56
2022/09/12 06:49:46;;;;;;;12.87;11.57;;;;;;;;;;4995180;28;20254;-56
2022/09/12 06:52:12;;;;;;;13.23;11.83;;;;;;;;;;4995150;28;20689;-57
2022/09/12 06:54:38;;;;;;;12.63;11.33;;;;;;;;;;4994611;28;20182;-57
2022/09/12 06:57:05;;;;;;;14.67;12.73;;;;;;;;;;4984236;28;20188;-56
2022/09/12 06:59:31;;;;;;;17.73;12.60;;;;;;;;;;4999970;28;20295;-56
2022/09/12 07:01:57;;;;;;;15.73;13.10;;;;;;;;;;5003040;28;20255;-57
2022/09/12 07:04:24;;;;;;;15.60;11.90;;;;;;;;;;4972140;28;20183;-56
2022/09/12 07:06:50;;;;;;;13.20;11.80;;;;;;;;;;4975303;28;20307;-56
2022/09/12 07:09:16;;;;;;;13.23;11.83;;;;;;;;;;4971317;28;20183;-57
2022/09/12 07:11:43;;;;;;;16.77;11.30;;;;;;;;;;4987768;28;20195;-56
2022/09/12 07:14:12;;;;;;;12.30;10.97;;;;;;;;;;4974609;28;20290;-58
2022/09/12 07:16:38;;;;;;;11.57;10.37;;;;;;;;;;4987226;28;20194;-57
2022/09/12 07:19:05;;;;;;;12.43;11.23;;;;;;;;;;4966865;28;20672;-57
2022/09/12 07:21:31;;;;;;;13.37;11.70;;;;;;;;;;4988301;28;20691;-56
2022/09/12 07:23:58;;;;;;;12.37;11.17;;;;;;;;;;4995833;28;20642;-57
2022/09/12 07:26:25;;;;;;;13.10;10.10;;;;;;;;;;4971725;28;20186;-57
2022/09/12 07:28:53;;;;;;;11.50;10.27;;;;;;;;;;4998242;28;21584;-57
2022/09/12 07:31:20;;;;;;;12.97;11.57;;;;;;;;;;4997647;28;20563;-57
2022/09/12 07:33:46;;;;;;;11.40;10.17;;;;;;;;;;5003448;28;20183;-57
2022/09/12 07:36:16;;;;;;;15.27;11.50;;;;;;;;;;5007535;28;20621;-56
2022/09/12 07:38:43;;;;;;;13.50;12.20;;;;;;;;;;4989284;28;20190;-56
2022/09/12 07:41:17;;;;;;;14.17;12.67;;;;;;;;;;4978306;28;20204;-56
2022/09/12 07:43:43;;;;;;;14.57;12.50;;;;;;;;;;4972906;28;20409;-56
2022/09/12 07:46:10;;;;;;;17.20;12.03;;;;;;;;;;5003626;28;20189;-56
2022/09/12 07:48:36;;;;;;;13.40;11.57;;;;;;;;;;4992480;28;20543;-57
2022/09/12 07:51:04;;;;;;;16.90;12.30;;;;;;;;;;4973609;28;20267;-57
2022/09/12 07:53:32;;;;;;;12.53;11.07;;;;;;;;;;4984846;28;20248;-57
2022/09/12 07:55:58;;;;;;;12.73;11.27;;;;;;;;;;4978958;28;20551;-57
2022/09/12 07:58:24;;;;;;;12.33;10.40;;;;;;;;;;4991915;28;20190;-56
2022/09/12 08:00:51;;;;;;;11.87;10.77;;;;;;;;;;4969989;28;20222;-57
2022/09/12 08:03:18;;;;;;;13.90;11.53;;;;;;;;;;4995568;28;20182;-57
2022/09/12 08:05:44;;;;;;;11.57;10.37;;;;;;;;;;4984312;28;20198;-57
2022/09/12 08:08:10;;;;;;;11.70;10.50;;;;;;;;;;4979045;28;20238;-58
2022/09/12 08:10:36;;;;;;;12.90;10.20;;;;;;;;;;4990171;28;20790;-58
2022/09/12 08:13:02;;;;;;;10.80;9.80;;;;;;;;;;4998993;28;20378;-58
2022/09/12 08:15:30;;;;;;;12.30;11.00;;;;;;;;;;4983468;28;20547;-57
2022/09/12 08:17:56;;;;;;;11.37;9.97;;;;;;;;;;4979355;28;20214;-57
2022/09/12 08:20:23;;;;;;;12.53;10.10;;;;;;;;;;4974917;28;20210;-57
2022/09/12 08:22:49;;;;;;;12.07;10.73;;;;;;;;;;4975773;28;20179;-57
2022/09/12 08:25:15;;;;;;;11.43;10.33;;;;;;;;;;4973461;28;20179;-57
2022/09/12 08:27:42;;;;;;;11.10;10.03;;;;;;;;;;4952324;28;20176;-57
2022/09/12 08:30:08;;;;;;;11.17;10.07;;;;;;;;;;4965008;28;20179;-56
2022/09/12 08:32:35;;;;;;;13.13;10.07;;;;;;;;;;4998128;28;20183;-56
2022/09/12 08:35:01;;;;;;;16.33;10.77;;;;;;;;;;4972702;28;20178;-55
2022/09/12 08:37:31;;;;;;;9.93;9.03;;;;;;;;;;4973935;28;20195;-56
2022/09/12 08:39:57;;;;;;;11.00;10.03;;;;;;;;;;4985704;28;20202;-57
2022/09/12 08:42:33;;;;;;;11.03;10.07;;;;;;;;;;4994177;28;20182;-56
2022/09/12 08:45:14;;;;;;;12.53;11.23;;;;;;;;;;4989326;28;20686;-56
2022/09/12 08:47:41;;;;;;;11.23;10.00;;;;;;;;;;4968508;28;20210;-57
2022/09/12 08:50:10;;;;;;;11.23;10.13;;;;;;;;;;4989357;28;20274;-56
2022/09/12 08:52:49;;;;;;;12.30;10.67;;;;;;;;;;4972465;28;20441;-57
2022/09/12 08:55:24;;;;;;;11.50;10.03;;;;;;;;;;4998377;28;20182;-57
2022/09/12 08:57:50;;;;;;;11.53;10.37;;;;;;;;;;4976319;28;20550;-56
2022/09/12 09:00:18;;;;;;;12.17;10.57;;;;;;;;;;4994696;28;20744;-57
2022/09/12 09:03:10;;;;;;;12.00;10.80;;;;;;;;;;4988467;28;20175;-57
2022/09/12 09:05:50;;;;;;;10.10;9.10;;;;;;;;;;4956989;28;20215;-57
2022/09/12 09:08:25;;;;;;;11.13;9.90;;;;;;;;;;4966676;28;20175;-57
2022/09/12 09:10:55;;;;;;;11.57;10.03;;;;;;;;;;4970666;28;20182;-56
2022/09/12 09:16:35;;;;;;;10.10;9.07;;;;;;;;;;5001060;28;20193;-56
2022/09/12 09:19:04;;;;;;;10.40;9.30;;;;;;;;;;4980383;28;20679;-58
2022/09/12 09:21:33;;;;;;;10.33;9.23;;;;;;;;;;4988332;28;20571;-55
2022/09/12 09:24:05;;;;;;;12.93;9.47;;;;;;;;;;4986758;28;20716;-56
2022/09/12 09:26:53;;;;;;;11.43;9.23;;;;;;;;;;4968267;28;20266;-58
2022/09/12 09:29:21;;;;;;;9.70;8.80;;;;;;;;;;4986688;28;20668;-57
2022/09/12 09:31:48;;;;;;;11.03;8.60;;;;;;;;;;4998106;28;20215;-56
2022/09/12 09:34:22;;;;;;;9.63;8.77;;;;;;;;;;4982383;28;20164;-56
2022/09/12 09:36:57;;;;;;;12.33;9.90;;;;;;;;;;4999145;28;20277;-56
2022/09/12 09:39:42;;;;;;;13.17;8.97;;;;;;;;;;5001842;28;20249;-56
2022/09/12 09:42:27;;;;;;;9.77;8.63;;;;;;;;;;4975627;28;20224;-56
2022/09/12 09:44:56;;;;;;;9.90;8.90;;;;;;;;;;4981656;28;20232;-57
2022/09/12 09:47:22;;;;;;;8.73;7.93;;;;;;;;;;4989999;28;20194;-57
2022/09/12 09:49:48;;;;;;;9.47;8.57;;;;;;;;;;4986265;28;20255;-57
2022/09/12 09:52:16;;;;;;;9.53;8.63;;;;;;;;;;5008479;28;20574;-56
2022/09/12 09:54:46;;;;;;;9.57;8.60;;;;;;;;;;4983823;28;20186;-57
2022/09/12 09:57:31;;;;;;;9.10;8.17;;;;;;;;;;4988730;28;20590;-57
2022/09/12 09:59:57;;;;;;;9.43;8.43;;;;;;;;;;5005121;28;20296;-57
2022/09/12 10:02:25;;;;;;;11.77;8.57;;;;;;;;;;4962537;28;20190;-57
2022/09/12 10:04:58;;;;;;;7.97;7.17;;;;;;;;;;4982318;28;20178;-56
2022/09/12 10:07:27;;;;;;;15.67;8.50;;;;;;;;;;4999654;28;20195;-56
2022/09/12 10:10:12;;;;;;;8.43;7.63;;;;;;;;;;4984674;28;20218;-55
2022/09/12 10:12:38;;;;;;;8.43;7.63;;;;;;;;;;4979477;28;20183;-55
2022/09/12 10:15:17;;;;;;;10.60;8.67;;;;;;;;;;4977482;28;20550;-55
2022/09/12 10:17:44;;;;;;;8.50;7.60;;;;;;;;;;4977525;28;20186;-57
2022/09/12 10:20:30;;;;;;;8.37;7.67;;;;;;;;;;4995883;28;20203;-58
2022/09/12 10:22:56;;;;;;;7.20;6.60;;;;;;;;;;4985003;28;20611;-57
2022/09/12 10:25:24;;;;;;;8.60;7.70;;;;;;;;;;4996708;28;20187;-57
2022/09/12 10:27:55;;;;;;;8.53;6.80;;;;;;;;;;4972306;28;20264;-57
2022/09/12 10:30:29;;;;;;;7.07;6.37;;;;;;;;;;4992933;28;20204;-58
2022/09/12 10:33:05;;;;;;;7.30;6.53;;;;;;;;;;4982499;28;20202;-57
2022/09/12 10:35:42;;;;;;;6.63;6.13;;;;;;;;;;4994132;28;20204;-57
2022/09/12 10:38:23;;;;;;;7.30;6.67;;;;;;;;;;4974892;28;20215;-57
2022/09/12 10:40:56;;;;;;;6.13;5.63;;;;;;;;;;4990552;28;20281;-58
2022/09/12 10:43:27;;;;;;;7.53;6.77;;;;;;;;;;4983187;28;20242;-57
2022/09/12 10:45:57;;;;;;;6.67;5.97;;;;;;;;;;4984601;28;20182;-57
2022/09/12 10:48:35;;;;;;;8.80;5.63;;;;;;;;;;4987105;28;20180;-57
2022/09/12 10:51:02;;;;;;;6.67;6.07;;;;;;;;;;4988781;28;20190;-57
2022/09/12 10:53:31;;;;;;;5.83;5.23;;;;;;;;;;4973430;28;20202;-57
2022/09/12 10:56:06;;;;;;;5.70;5.23;;;;;;;;;;4984652;28;20257;-56
2022/09/12 10:58:52;;;;;;;10.13;6.27;;;;;;;;;;4987138;28;20237;-57
2022/09/12 11:01:34;;;;;;;7.00;6.30;;;;;;;;;;4958472;28;20223;-56
2022/09/12 11:04:05;;;;;;;6.87;5.70;;;;;;;;;;4974688;28;20185;-57
2022/09/12 11:06:39;;;;;;;6.27;5.67;;;;;;;;;;4984447;28;20203;-56
2022/09/12 11:09:13;;;;;;;7.43;5.40;;;;;;;;;;4964424;28;20299;-56
2022/09/12 11:11:39;;;;;;;7.43;5.77;;;;;;;;;;4974203;28;20191;-55
2022/09/12 11:14:14;;;;;;;5.73;5.27;;;;;;;;;;4973904;28;20184;-57
2022/09/12 11:16:51;;;;;;;6.03;5.53;;;;;;;;;;4949967;29;20255;-56
2022/09/12 11:19:17;;;;;;;8.63;5.37;;;;;;;;;;4944013;28;20527;-56
2022/09/12 11:22:04;;;;;;;5.53;5.13;;;;;;;;;;4982733;28;20297;-58
2022/09/12 11:24:30;;;;;;;5.23;4.83;;;;;;;;;;4971921;28;20188;-56
2022/09/12 11:27:15;;;;;;;4.50;4.10;;;;;;;;;;4954648;28;20537;-57
2022/09/12 11:30:10;;;;;;;4.23;3.93;;;;;;;;;;4949970;28;20176;-56
2022/09/12 11:32:45;;;;;;;5.37;4.97;;;;;;;;;;4937318;28;20207;-57
2022/09/12 11:35:14;;;;;;;4.80;4.47;;;;;;;;;;4960132;28;20190;-55
2022/09/12 11:37:54;;;;;;;5.53;4.47;;;;;;;;;;4967704;28;20226;-56
2022/09/12 11:40:27;;;;;;;4.37;4.07;;;;;;;;;;4955548;28;20237;-57
2022/09/12 11:42:55;;;;;;;4.40;4.20;;;;;;;;;;4964647;28;20550;-57
2022/09/12 11:45:23;;;;;;;4.50;4.20;;;;;;;;;;4941721;28;20207;-56
2022/09/12 11:47:53;;;;;;;5.80;4.07;;;;;;;;;;4983207;28;20349;-57
2022/09/12 11:50:28;;;;;;;4.70;4.30;;;;;;;;;;4968153;28;20562;-57
2022/09/12 11:53:05;;;;;;;4.87;4.50;;;;;;;;;;4965350;28;20171;-56
2022/09/12 11:55:44;;;;;;;4.30;4.00;;;;;;;;;;4960415;28;20274;-55
2022/09/12 11:58:11;;;;;;;7.77;7.27;;;;;;;;;;4958143;28;20255;-56
2022/09/12 12:00:49;;;;;;;4.50;4.20;;;;;;;;;;4985226;28;20505;-56
2022/09/12 12:03:42;;;;;;;9.43;8.83;;;;;;;;;;4986836;28;20210;-57
2022/09/12 12:06:14;;;;;;;4.83;4.43;;;;;;;;;;4975531;28;20689;-56
2022/09/12 12:08:41;;;;;;;4.83;4.50;;;;;;;;;;4991781;28;20191;-55
2022/09/12 12:11:09;;;;;;;4.30;4.00;;;;;;;;;;4973722;28;20222;-55
2022/09/12 12:13:38;;;;;;;4.03;3.63;;;;;;;;;;4997103;28;20186;-56
2022/09/12 12:16:07;;;;;;;4.53;4.13;;;;;;;;;;4969533;28;20247;-57
2022/09/12 12:18:36;;;;;;;4.53;4.13;;;;;;;;;;4998558;28;20266;-56
2022/09/12 12:21:26;;;;;;;4.77;4.47;;;;;;;;;;5006149;28;20285;-56
2022/09/12 12:24:07;;;;;;;3.57;3.37;;;;;;;;;;4992561;28;20214;-56
2022/09/12 12:26:42;;;;;;;3.47;3.27;;;;;;;;;;4989155;28;20182;-57
2022/09/12 12:29:19;;;;;;;3.27;3.07;;;;;;;;;;5005306;28;20367;-56
2022/09/12 12:31:58;;;;;;;4.27;3.93;;;;;;;;;;4982086;28;20672;-57
2022/09/12 12:34:27;;;;;;;5.10;3.93;;;;;;;;;;4976755;28;20458;-56
2022/09/12 12:36:53;;;;;;;5.90;3.73;;;;;;;;;;5000993;28;20210;-57
2022/09/12 12:39:32;;;;;;;3.83;3.50;;;;;;;;;;5001941;28;20213;-57
2022/09/12 12:41:59;;;;;;;3.23;3.03;;;;;;;;;;4983179;28;20212;-56
2022/09/12 12:44:43;;;;;;;3.63;3.43;;;;;;;;;;4999099;28;20532;-58
2022/09/12 12:47:12;;;;;;;3.87;3.67;;;;;;;;;;4996218;28;20194;-56
2022/09/12 12:49:38;;;;;;;3.40;3.20;;;;;;;;;;4990028;28;20187;-58
2022/09/12 12:52:05;;;;;;;3.57;3.37;;;;;;;;;;4987388;28;20209;-57
2022/09/12 12:54:31;;;;;;;3.57;3.37;;;;;;;;;;4990111;28;20191;-57
2022/09/12 12:57:02;;;;;;;4.53;3.83;;;;;;;;;;5000117;28;20183;-57
2022/09/12 12:59:28;;;;;;;4.70;3.90;;;;;;;;;;4983639;28;20628;-56
2022/09/12 13:01:57;;;;;;;3.93;3.63;;;;;;;;;;4981954;28;20656;-56
2022/09/12 13:04:25;;;;;;;3.73;3.43;;;;;;;;;;4991322;28;20187;-56
2022/09/12 13:07:00;;;;;;;4.37;4.00;;;;;;;;;;4996922;28;20547;-57
2022/09/12 13:09:31;;;;;;;4.23;3.93;;;;;;;;;;4994755;28;20182;-57
2022/09/12 13:12:03;;;;;;;4.40;4.03;;;;;;;;;;5007987;28;20684;-57
2022/09/12 13:14:48;;;;;;;4.13;3.83;;;;;;;;;;4994733;28;20269;-57
2022/09/12 13:17:24;;;;;;;4.07;3.77;;;;;;;;;;4992094;28;20618;-57
2022/09/12 13:19:54;;;;;;;4.27;3.97;;;;;;;;;;4992862;28;20213;-57
2022/09/12 13:22:23;;;;;;;18.27;5.20;;;;;;;;;;4998973;28;20190;-58
2022/09/12 13:24:53;;;;;;;5.90;4.30;;;;;;;;;;4993623;28;20546;-59
2022/09/12 13:27:19;;;;;;;3.90;3.60;;;;;;;;;;4986810;28;20179;-55
2022/09/12 13:29:45;;;;;;;6.13;3.83;;;;;;;;;;4989348;28;20230;-57
2022/09/12 13:32:12;;;;;;;4.80;4.40;;;;;;;;;;4968727;28;20191;-55
2022/09/12 13:34:50;;;;;;;4.73;4.17;;;;;;;;;;4971157;28;20246;-56
2022/09/12 13:37:28;;;;;;;4.47;4.07;;;;;;;;;;4974386;28;20731;-57
2022/09/12 13:39:57;;;;;;;3.70;3.40;;;;;;;;;;4987978;28;20233;-57
2022/09/12 13:42:41;;;;;;;4.07;3.67;;;;;;;;;;4991302;28;20183;-55
2022/09/12 13:45:27;;;;;;;4.03;3.77;;;;;;;;;;4975735;28;20187;-58
2022/09/12 13:47:59;;;;;;;4.13;3.83;;;;;;;;;;4990946;28;20176;-56
2022/09/12 13:50:27;;;;;;;4.33;3.73;;;;;;;;;;4969879;28;20631;-57
2022/09/12 13:52:58;;;;;;;3.83;3.53;;;;;;;;;;4965948;28;20187;-57
2022/09/12 13:55:30;;;;;;;3.63;3.43;;;;;;;;;;4990357;28;20557;-57
2022/09/12 13:57:58;;;;;;;3.70;3.47;;;;;;;;;;4977791;28;20203;-58
2022/09/12 14:00:38;;;;;;;5.30;4.80;;;;;;;;;;4993657;28;20212;-56
2022/09/12 14:05:57;;;;;;;5.03;3.80;;;;;;;;;;4972044;28;20214;-58
2022/09/12 14:08:24;;;;;;;3.40;3.20;;;;;;;;;;4968625;28;20531;-57
2022/09/12 14:10:50;;;;;;;4.27;3.97;;;;;;;;;;4998867;28;20186;-57
2022/09/12 14:13:22;;;;;;;3.33;3.13;;;;;;;;;;4988758;28;20179;-57
2022/09/12 14:15:49;;;;;;;4.07;3.70;;;;;;;;;;4986761;28;20675;-57
2022/09/12 14:18:26;;;;;;;4.20;3.90;;;;;;;;;;4984687;28;20183;-59
2022/09/12 14:20:54;;;;;;;3.80;3.60;;;;;;;;;;4986664;28;20205;-59
2022/09/12 14:23:26;;;;;;;8.10;7.57;;;;;;;;;;4980191;28;20663;-59
2022/09/12 14:25:53;;;;;;;4.03;3.63;;;;;;;;;;4994062;28;20214;-57
2022/09/12 14:28:19;;;;;;;4.43;4.03;;;;;;;;;;4986858;28;20189;-56
2022/09/12 14:31:15;;;;;;;4.47;4.17;;;;;;;;;;4986220;28;20189;-56
2022/09/12 14:33:52;;;;;;;3.80;3.50;;;;;;;;;;4953982;28;20199;-58
2022/09/12 14:36:23;;;;;;;4.63;3.87;;;;;;;;;;4971994;28;20222;-57
2022/09/12 14:38:51;;;;;;;3.97;3.67;;;;;;;;;;4985968;28;20264;-57
2022/09/12 14:41:45;;;;;;;3.80;3.60;;;;;;;;;;4987560;28;20263;-57
2022/09/12 14:44:20;;;;;;;5.17;4.67;;;;;;;;;;4964087;28;20197;-56
2022/09/12 14:46:50;;;;;;;4.37;4.07;;;;;;;;;;4974089;28;20536;-56
2022/09/12 14:49:18;;;;;;;4.10;3.80;;;;;;;;;;4964379;28;20188;-56
2022/09/12 14:51:54;;;;;;;3.93;3.60;;;;;;;;;;4991423;28;20192;-56